sensor_id;sensor_type;location;lat;lon;timestamp;P1;durP1;ratioP1;P2;durP2;ratioP2
11046;SDS011;5576;50.008;10.596;2022-07-06T00:01:40;2.70;;;1.63;;
11046;SDS011;5576;50.008;10.596;2022-07-06T00:04:05;2.05;;;1.65;;
11046;SDS011;5576;50.008;10.596;2022-07-06T00:06:31;2.00;;;1.87;;
11046;SDS011;5576;50.008;10.596;2022-07-06T00:08:57;2.53;;;1.52;;
11046;SDS011;5576;50.008;10.596;2022-07-06T00:11:23;2.08;;;1.60;;
11046;SDS011;5576;50.008;10.596;2022-07-06T00:13:49;1.77;;;1.60;;
11046;SDS011;5576;50.008;10.596;2022-07-06T00:16:16;1.80;;;1.70;;
11046;SDS011;5576;50.008;10.596;2022-07-06T00:18:43;1.70;;;1.50;;
11046;SDS011;5576;50.008;10.596;2022-07-06T00:21:09;2.25;;;1.70;;
11046;SDS011;5576;50.008;10.596;2022-07-06T00:23:35;2.43;;;1.47;;
11046;SDS011;5576;50.008;10.596;2022-07-06T00:26:01;1.92;;;1.80;;
11046;SDS011;5576;50.008;10.596;2022-07-06T00:28:27;1.90;;;1.70;;
11046;SDS011;5576;50.008;10.596;2022-07-06T00:30:53;3.30;;;1.73;;
11046;SDS011;5576;50.008;10.596;2022-07-06T00:33:19;1.65;;;1.55;;
11046;SDS011;5576;50.008;10.596;2022-07-06T00:35:45;1.88;;;1.60;;
11046;SDS011;5576;50.008;10.596;2022-07-06T00:38:11;2.43;;;1.60;;
11046;SDS011;5576;50.008;10.596;2022-07-06T00:40:36;2.45;;;1.63;;
11046;SDS011;5576;50.008;10.596;2022-07-06T00:43:02;1.70;;;1.60;;
11046;SDS011;5576;50.008;10.596;2022-07-06T00:45:28;1.90;;;1.70;;
11046;SDS011;5576;50.008;10.596;2022-07-06T00:47:54;1.70;;;1.60;;
11046;SDS011;5576;50.008;10.596;2022-07-06T00:50:20;2.13;;;1.70;;
11046;SDS011;5576;50.008;10.596;2022-07-06T00:55:24;1.90;;;1.80;;
11046;SDS011;5576;50.008;10.596;2022-07-06T00:57:52;2.85;;;1.75;;
11046;SDS011;5576;50.008;10.596;2022-07-06T01:00:19;2.40;;;1.80;;
11046;SDS011;5576;50.008;10.596;2022-07-06T01:02:47;1.87;;;1.60;;
11046;SDS011;5576;50.008;10.596;2022-07-06T01:05:13;2.25;;;1.70;;
11046;SDS011;5576;50.008;10.596;2022-07-06T01:07:41;2.33;;;1.77;;
11046;SDS011;5576;50.008;10.596;2022-07-06T01:10:09;2.13;;;1.67;;
11046;SDS011;5576;50.008;10.596;2022-07-06T01:12:37;1.88;;;1.75;;
11046;SDS011;5576;50.008;10.596;2022-07-06T01:15:05;2.33;;;1.85;;
11046;SDS011;5576;50.008;10.596;2022-07-06T01:17:34;2.38;;;1.83;;
11046;SDS011;5576;50.008;10.596;2022-07-06T01:20:17;2.47;;;1.83;;
11046;SDS011;5576;50.008;10.596;2022-07-06T01:22:45;2.03;;;1.83;;
11046;SDS011;5576;50.008;10.596;2022-07-06T01:25:12;2.92;;;1.80;;
11046;SDS011;5576;50.008;10.596;2022-07-06T01:27:39;2.10;;;1.63;;
11046;SDS011;5576;50.008;10.596;2022-07-06T01:30:07;1.60;;;1.50;;
11046;SDS011;5576;50.008;10.596;2022-07-06T01:32:34;2.45;;;1.75;;
11046;SDS011;5576;50.008;10.596;2022-07-06T01:35:01;1.95;;;1.50;;
11046;SDS011;5576;50.008;10.596;2022-07-06T01:37:29;2.30;;;1.60;;
11046;SDS011;5576;50.008;10.596;2022-07-06T01:39:57;2.20;;;1.65;;
11046;SDS011;5576;50.008;10.596;2022-07-06T01:42:24;3.08;;;1.88;;
11046;SDS011;5576;50.008;10.596;2022-07-06T01:44:50;2.42;;;1.60;;
11046;SDS011;5576;50.008;10.596;2022-07-06T01:47:16;1.60;;;1.50;;
11046;SDS011;5576;50.008;10.596;2022-07-06T01:49:42;1.85;;;1.65;;
11046;SDS011;5576;50.008;10.596;2022-07-06T01:52:08;1.60;;;1.50;;
11046;SDS011;5576;50.008;10.596;2022-07-06T01:54:34;2.30;;;1.60;;
11046;SDS011;5576;50.008;10.596;2022-07-06T01:57:00;1.88;;;1.48;;
11046;SDS011;5576;50.008;10.596;2022-07-06T01:59:26;1.92;;;1.40;;
11046;SDS011;5576;50.008;10.596;2022-07-06T02:01:51;1.70;;;1.60;;
11046;SDS011;5576;50.008;10.596;2022-07-06T02:04:17;1.90;;;1.50;;
11046;SDS011;5576;50.008;10.596;2022-07-06T02:06:43;1.88;;;1.67;;
11046;SDS011;5576;50.008;10.596;2022-07-06T02:09:09;2.43;;;1.87;;
11046;SDS011;5576;50.008;10.596;2022-07-06T02:11:34;1.70;;;1.60;;
11046;SDS011;5576;50.008;10.596;2022-07-06T02:14:00;1.60;;;1.50;;
11046;SDS011;5576;50.008;10.596;2022-07-06T02:16:26;1.70;;;1.60;;
11046;SDS011;5576;50.008;10.596;2022-07-06T02:18:52;2.20;;;1.80;;
11046;SDS011;5576;50.008;10.596;2022-07-06T02:21:18;2.05;;;1.85;;
11046;SDS011;5576;50.008;10.596;2022-07-06T02:23:45;1.73;;;1.60;;
11046;SDS011;5576;50.008;10.596;2022-07-06T02:26:11;2.03;;;1.73;;
11046;SDS011;5576;50.008;10.596;2022-07-06T02:28:37;1.80;;;1.63;;
11046;SDS011;5576;50.008;10.596;2022-07-06T02:31:05;2.40;;;1.70;;
11046;SDS011;5576;50.008;10.596;2022-07-06T02:33:31;2.05;;;1.67;;
11046;SDS011;5576;50.008;10.596;2022-07-06T02:35:58;1.70;;;1.60;;
11046;SDS011;5576;50.008;10.596;2022-07-06T02:38:23;2.05;;;1.63;;
11046;SDS011;5576;50.008;10.596;2022-07-06T02:40:50;1.90;;;1.70;;
11046;SDS011;5576;50.008;10.596;2022-07-06T02:43:16;1.60;;;1.50;;
11046;SDS011;5576;50.008;10.596;2022-07-06T02:45:42;1.92;;;1.60;;
11046;SDS011;5576;50.008;10.596;2022-07-06T02:48:09;2.08;;;1.80;;
11046;SDS011;5576;50.008;10.596;2022-07-06T02:50:35;1.50;;;1.40;;
11046;SDS011;5576;50.008;10.596;2022-07-06T02:53:01;1.60;;;1.50;;
11046;SDS011;5576;50.008;10.596;2022-07-06T02:55:28;1.83;;;1.60;;
11046;SDS011;5576;50.008;10.596;2022-07-06T02:57:54;1.73;;;1.53;;
11046;SDS011;5576;50.008;10.596;2022-07-06T03:00:21;2.50;;;1.60;;
11046;SDS011;5576;50.008;10.596;2022-07-06T03:02:47;1.88;;;1.70;;
11046;SDS011;5576;50.008;10.596;2022-07-06T03:05:13;2.33;;;1.50;;
11046;SDS011;5576;50.008;10.596;2022-07-06T03:07:40;1.70;;;1.50;;
11046;SDS011;5576;50.008;10.596;2022-07-06T03:10:05;3.07;;;1.60;;
11046;SDS011;5576;50.008;10.596;2022-07-06T03:12:31;2.80;;;1.60;;
11046;SDS011;5576;50.008;10.596;2022-07-06T03:14:57;3.05;;;1.70;;
11046;SDS011;5576;50.008;10.596;2022-07-06T03:17:23;2.25;;;1.60;;
11046;SDS011;5576;50.008;10.596;2022-07-06T03:19:50;1.77;;;1.60;;
11046;SDS011;5576;50.008;10.596;2022-07-06T03:22:17;1.85;;;1.50;;
11046;SDS011;5576;50.008;10.596;2022-07-06T03:24:44;1.67;;;1.57;;
11046;SDS011;5576;50.008;10.596;2022-07-06T03:27:10;1.60;;;1.50;;
11046;SDS011;5576;50.008;10.596;2022-07-06T03:29:35;1.70;;;1.60;;
11046;SDS011;5576;50.008;10.596;2022-07-06T03:32:03;1.60;;;1.50;;
11046;SDS011;5576;50.008;10.596;2022-07-06T03:34:29;1.83;;;1.73;;
11046;SDS011;5576;50.008;10.596;2022-07-06T03:36:56;2.60;;;1.75;;
11046;SDS011;5576;50.008;10.596;2022-07-06T03:39:22;2.10;;;1.90;;
11046;SDS011;5576;50.008;10.596;2022-07-06T03:41:49;1.83;;;1.67;;
11046;SDS011;5576;50.008;10.596;2022-07-06T03:44:16;1.60;;;1.50;;
11046;SDS011;5576;50.008;10.596;2022-07-06T03:46:42;2.20;;;1.55;;
11046;SDS011;5576;50.008;10.596;2022-07-06T03:49:08;1.97;;;1.77;;
11046;SDS011;5576;50.008;10.596;2022-07-06T03:51:34;1.95;;;1.77;;
11046;SDS011;5576;50.008;10.596;2022-07-06T03:54:00;1.77;;;1.67;;
11046;SDS011;5576;50.008;10.596;2022-07-06T03:56:26;2.38;;;1.88;;
11046;SDS011;5576;50.008;10.596;2022-07-06T03:58:56;2.50;;;1.80;;
11046;SDS011;5576;50.008;10.596;2022-07-06T04:01:23;2.08;;;1.88;;
11046;SDS011;5576;50.008;10.596;2022-07-06T04:03:49;1.83;;;1.67;;
11046;SDS011;5576;50.008;10.596;2022-07-06T04:06:15;1.98;;;1.60;;
11046;SDS011;5576;50.008;10.596;2022-07-06T04:08:41;2.80;;;1.80;;
11046;SDS011;5576;50.008;10.596;2022-07-06T04:11:07;1.90;;;1.80;;
11046;SDS011;5576;50.008;10.596;2022-07-06T04:13:34;2.42;;;1.70;;
11046;SDS011;5576;50.008;10.596;2022-07-06T04:16:01;3.60;;;2.00;;
11046;SDS011;5576;50.008;10.596;2022-07-06T04:18:28;2.28;;;1.63;;
11046;SDS011;5576;50.008;10.596;2022-07-06T04:20:54;2.40;;;1.58;;
11046;SDS011;5576;50.008;10.596;2022-07-06T04:23:20;2.22;;;1.83;;
11046;SDS011;5576;50.008;10.596;2022-07-06T04:25:46;3.08;;;1.90;;
11046;SDS011;5576;50.008;10.596;2022-07-06T04:28:13;2.30;;;1.70;;
11046;SDS011;5576;50.008;10.596;2022-07-06T04:30:39;1.75;;;1.65;;
11046;SDS011;5576;50.008;10.596;2022-07-06T04:33:09;3.40;;;2.00;;
11046;SDS011;5576;50.008;10.596;2022-07-06T04:38:41;2.05;;;1.67;;
11046;SDS011;5576;50.008;10.596;2022-07-06T04:41:09;2.00;;;1.73;;
11046;SDS011;5576;50.008;10.596;2022-07-06T04:43:35;2.40;;;1.77;;
11046;SDS011;5576;50.008;10.596;2022-07-06T04:46:00;2.72;;;1.60;;
11046;SDS011;5576;50.008;10.596;2022-07-06T04:48:33;4.18;;;1.60;;
11046;SDS011;5576;50.008;10.596;2022-07-06T04:51:02;2.92;;;1.75;;
11046;SDS011;5576;50.008;10.596;2022-07-06T04:53:28;2.30;;;1.58;;
11046;SDS011;5576;50.008;10.596;2022-07-06T04:55:55;3.57;;;1.70;;
11046;SDS011;5576;50.008;10.596;2022-07-06T04:58:22;2.15;;;1.70;;
11046;SDS011;5576;50.008;10.596;2022-07-06T05:00:48;2.00;;;1.80;;
11046;SDS011;5576;50.008;10.596;2022-07-06T05:03:13;2.30;;;1.80;;
11046;SDS011;5576;50.008;10.596;2022-07-06T05:05:39;1.85;;;1.52;;
11046;SDS011;5576;50.008;10.596;2022-07-06T05:08:05;2.50;;;1.85;;
11046;SDS011;5576;50.008;10.596;2022-07-06T05:10:32;3.50;;;2.00;;
11046;SDS011;5576;50.008;10.596;2022-07-06T05:12:58;2.45;;;1.60;;
11046;SDS011;5576;50.008;10.596;2022-07-06T05:15:26;2.33;;;1.70;;
11046;SDS011;5576;50.008;10.596;2022-07-06T05:17:52;1.92;;;1.65;;
11046;SDS011;5576;50.008;10.596;2022-07-06T05:20:18;2.22;;;1.80;;
11046;SDS011;5576;50.008;10.596;2022-07-06T05:22:46;3.00;;;1.70;;
11046;SDS011;5576;50.008;10.596;2022-07-06T05:25:16;3.05;;;1.75;;
11046;SDS011;5576;50.008;10.596;2022-07-06T05:27:42;1.60;;;1.47;;
11046;SDS011;5576;50.008;10.596;2022-07-06T05:30:08;3.00;;;1.40;;
11046;SDS011;5576;50.008;10.596;2022-07-06T05:32:35;1.85;;;1.27;;
11046;SDS011;5576;50.008;10.596;2022-07-06T05:35:01;1.97;;;1.70;;
11046;SDS011;5576;50.008;10.596;2022-07-06T05:37:28;2.47;;;1.40;;
11046;SDS011;5576;50.008;10.596;2022-07-06T05:39:54;1.60;;;1.30;;
11046;SDS011;5576;50.008;10.596;2022-07-06T05:42:20;1.50;;;1.30;;
11046;SDS011;5576;50.008;10.596;2022-07-06T05:44:46;1.87;;;1.20;;
11046;SDS011;5576;50.008;10.596;2022-07-06T05:47:12;2.53;;;1.40;;
11046;SDS011;5576;50.008;10.596;2022-07-06T05:49:58;1.75;;;1.50;;
11046;SDS011;5576;50.008;10.596;2022-07-06T05:52:56;1.48;;;1.30;;
11046;SDS011;5576;50.008;10.596;2022-07-06T05:55:23;1.60;;;1.40;;
11046;SDS011;5576;50.008;10.596;2022-07-06T05:57:49;2.63;;;1.40;;
11046;SDS011;5576;50.008;10.596;2022-07-06T06:00:16;1.63;;;1.23;;
11046;SDS011;5576;50.008;10.596;2022-07-06T06:02:44;2.00;;;1.40;;
11046;SDS011;5576;50.008;10.596;2022-07-06T06:05:15;2.00;;;1.30;;
11046;SDS011;5576;50.008;10.596;2022-07-06T06:07:43;2.13;;;1.40;;
11046;SDS011;5576;50.008;10.596;2022-07-06T06:10:11;1.90;;;1.50;;
11046;SDS011;5576;50.008;10.596;2022-07-06T06:12:39;2.60;;;1.38;;
11046;SDS011;5576;50.008;10.596;2022-07-06T06:15:05;2.20;;;1.40;;
11046;SDS011;5576;50.008;10.596;2022-07-06T06:17:32;1.67;;;1.40;;
11046;SDS011;5576;50.008;10.596;2022-07-06T06:19:58;1.85;;;1.63;;
11046;SDS011;5576;50.008;10.596;2022-07-06T06:22:24;2.85;;;1.40;;
11046;SDS011;5576;50.008;10.596;2022-07-06T06:24:50;2.70;;;1.50;;
11046;SDS011;5576;50.008;10.596;2022-07-06T06:27:16;1.50;;;1.40;;
11046;SDS011;5576;50.008;10.596;2022-07-06T06:29:42;1.88;;;1.20;;
11046;SDS011;5576;50.008;10.596;2022-07-06T06:32:10;1.60;;;1.30;;
11046;SDS011;5576;50.008;10.596;2022-07-06T06:34:37;2.40;;;1.40;;
11046;SDS011;5576;50.008;10.596;2022-07-06T06:37:03;1.63;;;1.20;;
11046;SDS011;5576;50.008;10.596;2022-07-06T06:39:29;1.30;;;1.20;;
11046;SDS011;5576;50.008;10.596;2022-07-06T06:41:55;1.73;;;1.30;;
11046;SDS011;5576;50.008;10.596;2022-07-06T06:44:21;3.00;;;1.20;;
11046;SDS011;5576;50.008;10.596;2022-07-06T06:46:48;1.50;;;1.40;;
11046;SDS011;5576;50.008;10.596;2022-07-06T06:49:15;1.63;;;1.10;;
11046;SDS011;5576;50.008;10.596;2022-07-06T06:51:41;2.53;;;1.17;;
11046;SDS011;5576;50.008;10.596;2022-07-06T06:54:06;1.98;;;1.20;;
11046;SDS011;5576;50.008;10.596;2022-07-06T06:56:32;1.60;;;1.30;;
11046;SDS011;5576;50.008;10.596;2022-07-06T06:58:58;2.05;;;1.20;;
11046;SDS011;5576;50.008;10.596;2022-07-06T07:01:23;1.43;;;1.33;;
11046;SDS011;5576;50.008;10.596;2022-07-06T07:03:50;1.60;;;1.40;;
11046;SDS011;5576;50.008;10.596;2022-07-06T07:06:16;2.75;;;1.20;;
11046;SDS011;5576;50.008;10.596;2022-07-06T07:08:41;3.33;;;1.33;;
11046;SDS011;5576;50.008;10.596;2022-07-06T07:11:07;1.20;;;1.10;;
11046;SDS011;5576;50.008;10.596;2022-07-06T07:13:33;2.67;;;1.20;;
11046;SDS011;5576;50.008;10.596;2022-07-06T07:15:58;2.40;;;1.17;;
11046;SDS011;5576;50.008;10.596;2022-07-06T07:18:24;2.27;;;1.10;;
11046;SDS011;5576;50.008;10.596;2022-07-06T07:20:50;1.95;;;1.30;;
11046;SDS011;5576;50.008;10.596;2022-07-06T07:23:15;1.30;;;1.10;;
11046;SDS011;5576;50.008;10.596;2022-07-06T07:25:41;1.67;;;1.10;;
11046;SDS011;5576;50.008;10.596;2022-07-06T07:28:07;1.70;;;1.30;;
11046;SDS011;5576;50.008;10.596;2022-07-06T07:30:34;2.00;;;1.30;;
11046;SDS011;5576;50.008;10.596;2022-07-06T07:32:59;2.00;;;1.10;;
11046;SDS011;5576;50.008;10.596;2022-07-06T07:35:26;2.20;;;1.35;;
11046;SDS011;5576;50.008;10.596;2022-07-06T07:37:52;2.20;;;1.35;;
11046;SDS011;5576;50.008;10.596;2022-07-06T07:40:19;1.47;;;1.17;;
11046;SDS011;5576;50.008;10.596;2022-07-06T07:42:45;2.70;;;1.50;;
11046;SDS011;5576;50.008;10.596;2022-07-06T07:45:11;1.40;;;1.10;;
11046;SDS011;5576;50.008;10.596;2022-07-06T07:47:37;1.98;;;1.30;;
11046;SDS011;5576;50.008;10.596;2022-07-06T07:50:04;5.07;;;1.25;;
11046;SDS011;5576;50.008;10.596;2022-07-06T07:52:31;1.23;;;1.10;;
11046;SDS011;5576;50.008;10.596;2022-07-06T07:54:57;2.47;;;1.33;;
11046;SDS011;5576;50.008;10.596;2022-07-06T07:57:22;3.30;;;1.40;;
11046;SDS011;5576;50.008;10.596;2022-07-06T07:59:48;2.03;;;1.30;;
11046;SDS011;5576;50.008;10.596;2022-07-06T08:02:14;1.90;;;1.13;;
11046;SDS011;5576;50.008;10.596;2022-07-06T08:04:40;2.33;;;1.42;;
11046;SDS011;5576;50.008;10.596;2022-07-06T08:07:06;2.40;;;1.38;;
11046;SDS011;5576;50.008;10.596;2022-07-06T08:09:32;1.85;;;1.30;;
11046;SDS011;5576;50.008;10.596;2022-07-06T08:11:58;1.97;;;1.43;;
11046;SDS011;5576;50.008;10.596;2022-07-06T08:14:24;2.33;;;1.42;;
11046;SDS011;5576;50.008;10.596;2022-07-06T08:16:50;3.15;;;1.30;;
11046;SDS011;5576;50.008;10.596;2022-07-06T08:19:16;1.52;;;1.30;;
11046;SDS011;5576;50.008;10.596;2022-07-06T08:21:41;1.57;;;1.37;;
11046;SDS011;5576;50.008;10.596;2022-07-06T08:24:07;1.98;;;1.27;;
11046;SDS011;5576;50.008;10.596;2022-07-06T08:26:33;1.55;;;1.38;;
11046;SDS011;5576;50.008;10.596;2022-07-06T08:28:59;1.90;;;1.40;;
11046;SDS011;5576;50.008;10.596;2022-07-06T08:31:25;1.77;;;1.30;;
11046;SDS011;5576;50.008;10.596;2022-07-06T08:33:52;1.38;;;1.27;;
11046;SDS011;5576;50.008;10.596;2022-07-06T08:36:19;1.85;;;1.30;;
11046;SDS011;5576;50.008;10.596;2022-07-06T08:38:46;1.50;;;1.30;;
11046;SDS011;5576;50.008;10.596;2022-07-06T08:41:13;3.30;;;1.63;;
11046;SDS011;5576;50.008;10.596;2022-07-06T08:43:40;2.00;;;1.45;;
11046;SDS011;5576;50.008;10.596;2022-07-06T08:46:07;2.50;;;1.53;;
11046;SDS011;5576;50.008;10.596;2022-07-06T08:48:35;1.50;;;1.40;;
11046;SDS011;5576;50.008;10.596;2022-07-06T08:51:02;1.73;;;1.33;;
11046;SDS011;5576;50.008;10.596;2022-07-06T08:53:30;2.47;;;1.40;;
11046;SDS011;5576;50.008;10.596;2022-07-06T08:55:56;1.67;;;1.40;;
11046;SDS011;5576;50.008;10.596;2022-07-06T08:58:24;1.50;;;1.40;;
11046;SDS011;5576;50.008;10.596;2022-07-06T09:00:51;2.73;;;1.47;;
11046;SDS011;5576;50.008;10.596;2022-07-06T09:03:21;3.30;;;1.60;;
11046;SDS011;5576;50.008;10.596;2022-07-06T09:05:48;1.40;;;1.30;;
11046;SDS011;5576;50.008;10.596;2022-07-06T09:08:15;1.65;;;1.45;;
11046;SDS011;5576;50.008;10.596;2022-07-06T09:10:42;2.25;;;1.65;;
11046;SDS011;5576;50.008;10.596;2022-07-06T09:13:08;2.80;;;1.77;;
11046;SDS011;5576;50.008;10.596;2022-07-06T09:15:34;3.07;;;2.07;;
11046;SDS011;5576;50.008;10.596;2022-07-06T09:18:03;3.17;;;1.70;;
11046;SDS011;5576;50.008;10.596;2022-07-06T09:20:29;2.22;;;1.35;;
11046;SDS011;5576;50.008;10.596;2022-07-06T09:23:04;2.30;;;1.48;;
11046;SDS011;5576;50.008;10.596;2022-07-06T09:25:31;2.03;;;1.40;;
11046;SDS011;5576;50.008;10.596;2022-07-06T09:27:58;1.88;;;1.35;;
11046;SDS011;5576;50.008;10.596;2022-07-06T09:30:25;2.60;;;1.40;;
11046;SDS011;5576;50.008;10.596;2022-07-06T09:32:53;1.88;;;1.27;;
11046;SDS011;5576;50.008;10.596;2022-07-06T09:35:22;1.55;;;1.30;;
11046;SDS011;5576;50.008;10.596;2022-07-06T09:40:37;1.80;;;1.52;;
11046;SDS011;5576;50.008;10.596;2022-07-06T09:43:06;2.57;;;1.57;;
11046;SDS011;5576;50.008;10.596;2022-07-06T09:45:34;2.20;;;1.60;;
11046;SDS011;5576;50.008;10.596;2022-07-06T09:48:09;2.03;;;1.33;;
11046;SDS011;5576;50.008;10.596;2022-07-06T09:50:47;1.60;;;1.30;;
11046;SDS011;5576;50.008;10.596;2022-07-06T09:53:16;1.83;;;1.40;;
11046;SDS011;5576;50.008;10.596;2022-07-06T09:55:44;1.60;;;1.30;;
11046;SDS011;5576;50.008;10.596;2022-07-06T09:58:11;3.22;;;1.60;;
11046;SDS011;5576;50.008;10.596;2022-07-06T10:00:37;1.83;;;1.33;;
11046;SDS011;5576;50.008;10.596;2022-07-06T10:03:03;1.63;;;1.30;;
11046;SDS011;5576;50.008;10.596;2022-07-06T10:05:30;2.17;;;1.37;;
11046;SDS011;5576;50.008;10.596;2022-07-06T10:07:58;2.03;;;1.35;;
11046;SDS011;5576;50.008;10.596;2022-07-06T10:10:26;3.10;;;1.40;;
11046;SDS011;5576;50.008;10.596;2022-07-06T10:12:56;2.20;;;1.17;;
11046;SDS011;5576;50.008;10.596;2022-07-06T10:15:24;2.33;;;1.13;;
11046;SDS011;5576;50.008;10.596;2022-07-06T10:17:52;1.30;;;1.20;;
11046;SDS011;5576;50.008;10.596;2022-07-06T10:20:19;1.45;;;1.20;;
11046;SDS011;5576;50.008;10.596;2022-07-06T10:22:47;1.88;;;1.40;;
11046;SDS011;5576;50.008;10.596;2022-07-06T10:25:17;2.08;;;1.27;;
11046;SDS011;5576;50.008;10.596;2022-07-06T10:27:44;1.48;;;1.10;;
11046;SDS011;5576;50.008;10.596;2022-07-06T10:30:11;2.65;;;1.40;;
11046;SDS011;5576;50.008;10.596;2022-07-06T10:32:38;2.67;;;1.30;;
11046;SDS011;5576;50.008;10.596;2022-07-06T10:35:06;1.70;;;1.27;;
11046;SDS011;5576;50.008;10.596;2022-07-06T10:37:32;1.67;;;1.30;;
11046;SDS011;5576;50.008;10.596;2022-07-06T10:39:59;2.40;;;1.20;;
11046;SDS011;5576;50.008;10.596;2022-07-06T10:42:46;1.52;;;1.42;;
11046;SDS011;5576;50.008;10.596;2022-07-06T10:45:21;2.10;;;1.50;;
11046;SDS011;5576;50.008;10.596;2022-07-06T10:50:39;1.60;;;1.17;;
11046;SDS011;5576;50.008;10.596;2022-07-06T10:53:13;1.73;;;1.30;;
11046;SDS011;5576;50.008;10.596;2022-07-06T10:55:42;1.40;;;1.20;;
11046;SDS011;5576;50.008;10.596;2022-07-06T10:58:34;1.58;;;1.20;;
11046;SDS011;5576;50.008;10.596;2022-07-06T11:01:02;3.03;;;1.33;;
11046;SDS011;5576;50.008;10.596;2022-07-06T11:03:30;2.90;;;1.35;;
11046;SDS011;5576;50.008;10.596;2022-07-06T11:06:02;2.65;;;1.30;;
11046;SDS011;5576;50.008;10.596;2022-07-06T11:08:40;1.75;;;1.10;;
11046;SDS011;5576;50.008;10.596;2022-07-06T11:11:15;1.85;;;1.20;;
11046;SDS011;5576;50.008;10.596;2022-07-06T11:13:46;1.58;;;1.30;;
11046;SDS011;5576;50.008;10.596;2022-07-06T11:16:14;1.53;;;1.40;;
11046;SDS011;5576;50.008;10.596;2022-07-06T11:18:41;1.85;;;1.30;;
11046;SDS011;5576;50.008;10.596;2022-07-06T11:21:19;1.33;;;1.17;;
11046;SDS011;5576;50.008;10.596;2022-07-06T11:23:48;2.03;;;1.02;;
11046;SDS011;5576;50.008;10.596;2022-07-06T11:26:15;1.67;;;1.20;;
11046;SDS011;5576;50.008;10.596;2022-07-06T11:28:43;1.48;;;1.20;;
11046;SDS011;5576;50.008;10.596;2022-07-06T11:31:11;2.40;;;1.70;;
11046;SDS011;5576;50.008;10.596;2022-07-06T11:33:37;1.48;;;1.30;;
11046;SDS011;5576;50.008;10.596;2022-07-06T11:36:19;2.00;;;1.30;;
11046;SDS011;5576;50.008;10.596;2022-07-06T11:38:47;1.92;;;1.20;;
11046;SDS011;5576;50.008;10.596;2022-07-06T11:41:16;1.52;;;1.23;;
11046;SDS011;5576;50.008;10.596;2022-07-06T11:43:43;1.45;;;1.20;;
11046;SDS011;5576;50.008;10.596;2022-07-06T11:48:58;2.58;;;1.30;;
11046;SDS011;5576;50.008;10.596;2022-07-06T11:51:26;2.47;;;1.40;;
11046;SDS011;5576;50.008;10.596;2022-07-06T11:53:55;1.90;;;1.00;;
11046;SDS011;5576;50.008;10.596;2022-07-06T11:56:25;1.10;;;1.00;;
11046;SDS011;5576;50.008;10.596;2022-07-06T11:58:59;1.23;;;1.13;;
11046;SDS011;5576;50.008;10.596;2022-07-06T12:01:26;1.15;;;1.05;;
11046;SDS011;5576;50.008;10.596;2022-07-06T12:03:57;1.27;;;1.13;;
11046;SDS011;5576;50.008;10.596;2022-07-06T12:06:25;1.15;;;1.05;;
11046;SDS011;5576;50.008;10.596;2022-07-06T12:08:53;1.50;;;0.90;;
11046;SDS011;5576;50.008;10.596;2022-07-06T12:11:24;1.10;;;1.00;;
11046;SDS011;5576;50.008;10.596;2022-07-06T12:13:52;1.10;;;1.02;;
11046;SDS011;5576;50.008;10.596;2022-07-06T12:16:20;1.40;;;0.98;;
11046;SDS011;5576;50.008;10.596;2022-07-06T12:18:49;1.85;;;1.02;;
11046;SDS011;5576;50.008;10.596;2022-07-06T12:21:17;2.47;;;0.98;;
11046;SDS011;5576;50.008;10.596;2022-07-06T12:23:46;1.20;;;0.93;;
11046;SDS011;5576;50.008;10.596;2022-07-06T12:26:14;2.10;;;0.80;;
11046;SDS011;5576;50.008;10.596;2022-07-06T12:28:41;1.30;;;0.90;;
11046;SDS011;5576;50.008;10.596;2022-07-06T12:31:08;1.55;;;1.00;;
11046;SDS011;5576;50.008;10.596;2022-07-06T12:33:35;1.10;;;0.90;;
11046;SDS011;5576;50.008;10.596;2022-07-06T12:36:10;1.70;;;0.90;;
11046;SDS011;5576;50.008;10.596;2022-07-06T12:38:43;1.40;;;1.30;;
11046;SDS011;5576;50.008;10.596;2022-07-06T12:41:10;2.20;;;1.17;;
11046;SDS011;5576;50.008;10.596;2022-07-06T12:43:37;1.55;;;0.98;;
11046;SDS011;5576;50.008;10.596;2022-07-06T12:46:37;1.67;;;0.90;;
11046;SDS011;5576;50.008;10.596;2022-07-06T12:48:55;1.20;;;0.90;;
11046;SDS011;5576;50.008;10.596;2022-07-06T12:51:22;2.30;;;0.95;;
11046;SDS011;5576;50.008;10.596;2022-07-06T12:53:48;1.70;;;1.00;;
11046;SDS011;5576;50.008;10.596;2022-07-06T12:56:14;1.10;;;0.90;;
11046;SDS011;5576;50.008;10.596;2022-07-06T12:58:54;0.90;;;0.90;;
11046;SDS011;5576;50.008;10.596;2022-07-06T13:01:21;1.00;;;0.90;;
11046;SDS011;5576;50.008;10.596;2022-07-06T13:03:46;1.17;;;1.05;;
11046;SDS011;5576;50.008;10.596;2022-07-06T13:06:12;2.00;;;1.10;;
11046;SDS011;5576;50.008;10.596;2022-07-06T13:08:38;1.40;;;0.90;;
11046;SDS011;5576;50.008;10.596;2022-07-06T13:11:03;1.60;;;1.02;;
11046;SDS011;5576;50.008;10.596;2022-07-06T13:13:29;1.60;;;1.13;;
11046;SDS011;5576;50.008;10.596;2022-07-06T13:15:55;1.47;;;1.10;;
11046;SDS011;5576;50.008;10.596;2022-07-06T13:18:21;1.02;;;0.90;;
11046;SDS011;5576;50.008;10.596;2022-07-06T13:20:47;1.20;;;1.10;;
11046;SDS011;5576;50.008;10.596;2022-07-06T13:23:12;1.58;;;1.00;;
11046;SDS011;5576;50.008;10.596;2022-07-06T13:25:38;1.77;;;1.07;;
11046;SDS011;5576;50.008;10.596;2022-07-06T13:28:04;1.30;;;1.10;;
11046;SDS011;5576;50.008;10.596;2022-07-06T13:30:29;1.20;;;0.90;;
11046;SDS011;5576;50.008;10.596;2022-07-06T13:32:56;1.10;;;0.97;;
11046;SDS011;5576;50.008;10.596;2022-07-06T13:35:22;1.27;;;0.82;;
11046;SDS011;5576;50.008;10.596;2022-07-06T13:37:47;1.00;;;0.90;;
11046;SDS011;5576;50.008;10.596;2022-07-06T13:40:16;1.00;;;0.90;;
11046;SDS011;5576;50.008;10.596;2022-07-06T13:42:41;1.42;;;1.00;;
11046;SDS011;5576;50.008;10.596;2022-07-06T13:45:07;1.00;;;0.90;;
11046;SDS011;5576;50.008;10.596;2022-07-06T13:47:33;1.30;;;1.00;;
11046;SDS011;5576;50.008;10.596;2022-07-06T13:49:59;1.20;;;0.90;;
11046;SDS011;5576;50.008;10.596;2022-07-06T13:52:24;1.80;;;1.00;;
11046;SDS011;5576;50.008;10.596;2022-07-06T13:54:50;1.23;;;1.00;;
11046;SDS011;5576;50.008;10.596;2022-07-06T13:57:16;1.67;;;0.87;;
11046;SDS011;5576;50.008;10.596;2022-07-06T13:59:41;1.30;;;0.90;;
11046;SDS011;5576;50.008;10.596;2022-07-06T14:02:08;1.30;;;0.90;;
11046;SDS011;5576;50.008;10.596;2022-07-06T14:04:33;0.82;;;0.80;;
11046;SDS011;5576;50.008;10.596;2022-07-06T14:06:59;1.00;;;0.90;;
11046;SDS011;5576;50.008;10.596;2022-07-06T14:09:26;0.90;;;0.90;;
11046;SDS011;5576;50.008;10.596;2022-07-06T14:11:51;0.90;;;0.90;;
11046;SDS011;5576;50.008;10.596;2022-07-06T14:14:17;1.70;;;1.00;;
11046;SDS011;5576;50.008;10.596;2022-07-06T14:16:43;0.93;;;0.90;;
11046;SDS011;5576;50.008;10.596;2022-07-06T14:19:09;1.55;;;1.05;;
11046;SDS011;5576;50.008;10.596;2022-07-06T14:21:34;1.40;;;1.00;;
11046;SDS011;5576;50.008;10.596;2022-07-06T14:24:00;1.27;;;1.00;;
11046;SDS011;5576;50.008;10.596;2022-07-06T14:26:26;1.57;;;1.00;;
11046;SDS011;5576;50.008;10.596;2022-07-06T14:28:52;1.52;;;0.88;;
11046;SDS011;5576;50.008;10.596;2022-07-06T14:31:17;2.45;;;1.05;;
11046;SDS011;5576;50.008;10.596;2022-07-06T14:33:43;1.00;;;0.80;;
11046;SDS011;5576;50.008;10.596;2022-07-06T14:36:09;1.00;;;0.80;;
11046;SDS011;5576;50.008;10.596;2022-07-06T14:38:35;1.40;;;0.97;;
11046;SDS011;5576;50.008;10.596;2022-07-06T14:41:00;1.40;;;0.80;;
11046;SDS011;5576;50.008;10.596;2022-07-06T14:43:26;1.10;;;0.90;;
11046;SDS011;5576;50.008;10.596;2022-07-06T14:45:52;2.00;;;1.00;;
11046;SDS011;5576;50.008;10.596;2022-07-06T14:48:18;1.65;;;1.00;;
11046;SDS011;5576;50.008;10.596;2022-07-06T14:50:44;1.15;;;1.00;;
11046;SDS011;5576;50.008;10.596;2022-07-06T14:53:10;2.53;;;1.10;;
11046;SDS011;5576;50.008;10.596;2022-07-06T14:55:36;1.73;;;1.15;;
11046;SDS011;5576;50.008;10.596;2022-07-06T14:58:01;1.10;;;1.00;;
11046;SDS011;5576;50.008;10.596;2022-07-06T15:00:27;1.10;;;1.00;;
11046;SDS011;5576;50.008;10.596;2022-07-06T15:02:53;1.27;;;1.10;;